Time,TemperatureF,DewpointF,PressureIn,WindDirection,WindDirectionDegrees,WindSpeedMPH,WindSpeedGustMPH,Humidity,HourlyPrecipIn,Conditions,Clouds,dailyrainin,SolarRadiationWatts/m^2,SoftwareType,DateUTC
2014-07-25 00:22:00,53.0,43.0,-100.00,North,0,2.0,5.0,68,0.00,,,0.00,0.000000,,2014-07-25 06:22:00,
2014-07-25 00:32:00,53.0,43.0,-100.00,North,0,2.0,5.0,68,0.00,,,0.00,0.000000,,2014-07-25 06:32:00,
2014-07-25 00:42:00,53.0,43.0,-100.00,North,0,2.0,5.0,68,0.00,,,0.00,0.000000,,2014-07-25 06:42:00,
2014-07-25 01:33:00,51.0,44.0,-100.00,North,0,1.0,5.0,76,0.00,,,0.00,0.000000,,2014-07-25 07:33:00,
2014-07-25 02:22:00,47.0,41.0,-100.00,North,0,3.0,4.0,81,0.00,,,0.00,0.000000,,2014-07-25 08:22:00,
2014-07-25 02:32:00,47.0,41.0,-100.00,North,0,3.0,4.0,81,0.00,,,0.00,0.000000,,2014-07-25 08:32:00,
2014-07-25 02:42:00,47.0,41.0,-100.00,North,0,3.0,4.0,81,0.00,,,0.00,0.000000,,2014-07-25 08:42:00,
2014-07-25 03:33:00,45.0,42.0,-100.00,North,0,2.0,4.0,90,0.00,,,0.00,0.000000,,2014-07-25 09:33:00,
2014-07-25 03:43:00,45.0,42.0,-100.00,North,0,2.0,4.0,90,0.00,,,0.00,0.000000,,2014-07-25 09:43:00,
2014-07-25 04:13:00,44.0,42.0,-100.00,North,0,3.0,4.0,92,0.00,,,0.00,0.000000,,2014-07-25 10:13:00,
2014-07-25 04:23:00,44.0,42.0,-100.00,North,0,3.0,4.0,92,0.00,,,0.00,0.000000,,2014-07-25 10:23:00,
2014-07-25 05:13:00,44.0,42.0,-100.00,North,0,3.0,5.0,92,0.00,,,0.00,0.000000,,2014-07-25 11:13:00,
2014-07-25 05:22:00,44.0,42.0,-100.00,North,0,3.0,5.0,92,0.00,,,0.00,0.000000,,2014-07-25 11:22:00,
2014-07-25 05:33:00,44.0,42.0,-100.00,North,0,3.0,5.0,92,0.00,,,0.00,0.000000,,2014-07-25 11:33:00,
2014-07-25 05:43:00,44.0,42.0,-100.00,North,0,3.0,5.0,92,0.00,,,0.00,0.000000,,2014-07-25 11:43:00,
2014-07-25 06:12:00,44.0,42.0,-100.00,North,0,2.0,5.0,92,0.00,,,0.00,1.000000,,2014-07-25 12:12:00,
2014-07-25 06:32:00,44.0,42.0,-100.00,North,0,2.0,5.0,92,0.00,,,0.00,1.000000,,2014-07-25 12:32:00,
2014-07-25 07:12:00,48.0,43.0,-100.00,North,0,3.0,5.0,82,0.00,,,0.00,68.000000,,2014-07-25 13:12:00,
2014-07-25 07:22:00,48.0,43.0,-100.00,North,0,3.0,5.0,82,0.00,,,0.00,68.000000,,2014-07-25 13:22:00,
2014-07-25 07:32:00,48.0,43.0,-100.00,North,0,3.0,5.0,82,0.00,,,0.00,68.000000,,2014-07-25 13:32:00,
2014-07-25 07:42:00,48.0,43.0,-100.00,North,0,3.0,5.0,82,0.00,,,0.00,68.000000,,2014-07-25 13:42:00,
2014-07-25 08:12:00,57.0,48.0,-100.00,North,0,2.0,4.0,71,0.00,,,0.00,230.000000,,2014-07-25 14:12:00,
2014-07-25 08:23:00,57.0,48.0,-100.00,North,0,2.0,4.0,71,0.00,,,0.00,230.000000,,2014-07-25 14:23:00,
2014-07-25 08:32:00,57.0,48.0,-100.00,North,0,2.0,4.0,71,0.00,,,0.00,230.000000,,2014-07-25 14:32:00,
2014-07-25 08:43:00,57.0,48.0,-100.00,North,0,2.0,4.0,71,0.00,,,0.00,230.000000,,2014-07-25 14:43:00,
2014-07-25 09:12:00,60.0,45.0,-100.00,North,0,3.0,5.0,58,0.00,,,0.00,414.000000,,2014-07-25 15:12:00,
2014-07-25 09:22:00,60.0,45.0,-100.00,North,0,3.0,5.0,58,0.00,,,0.00,414.000000,,2014-07-25 15:22:00,
2014-07-25 09:44:00,60.0,45.0,-100.00,North,0,3.0,5.0,58,0.00,,,0.00,414.000000,,2014-07-25 15:44:00,
2014-07-25 10:23:00,69.0,29.0,-100.00,North,0,10.0,14.0,22,0.00,,,0.00,606.000000,,2014-07-25 16:23:00,
2014-07-25 10:33:00,69.0,29.0,-100.00,North,0,10.0,14.0,22,0.00,,,0.00,606.000000,,2014-07-25 16:33:00,
2014-07-25 11:13:00,69.0,19.0,-100.00,North,0,15.0,20.0,15,0.00,,,0.00,772.000000,,2014-07-25 17:13:00,
2014-07-25 11:23:00,69.0,19.0,-100.00,North,0,15.0,20.0,15,0.00,,,0.00,772.000000,,2014-07-25 17:23:00,
2014-07-25 11:43:00,69.0,19.0,-100.00,North,0,15.0,20.0,15,0.00,,,0.00,772.000000,,2014-07-25 17:43:00,
2014-07-25 12:12:00,70.0,19.0,-100.00,North,0,15.0,21.0,14,0.00,,,0.00,896.000000,,2014-07-25 18:12:00,
2014-07-25 12:22:00,70.0,19.0,-100.00,North,0,15.0,21.0,14,0.00,,,0.00,896.000000,,2014-07-25 18:22:00,
2014-07-25 12:42:00,70.0,19.0,-100.00,North,0,15.0,21.0,14,0.00,,,0.00,896.000000,,2014-07-25 18:42:00,
2014-07-25 13:12:00,72.0,20.0,-100.00,North,0,11.0,19.0,14,0.00,,,0.00,968.000000,,2014-07-25 19:12:00,
2014-07-25 13:32:00,72.0,20.0,-100.00,North,0,11.0,19.0,14,0.00,,,0.00,968.000000,,2014-07-25 19:32:00,
2014-07-25 14:13:00,72.0,20.0,-100.00,North,0,11.0,18.0,14,0.00,,,0.00,982.000000,,2014-07-25 20:13:00,
2014-07-25 14:32:00,72.0,20.0,-100.00,North,0,11.0,18.0,14,0.00,,,0.00,982.000000,,2014-07-25 20:32:00,
2014-07-25 14:43:00,72.0,20.0,-100.00,North,0,11.0,18.0,14,0.00,,,0.00,982.000000,,2014-07-25 20:43:00,
2014-07-25 15:22:00,73.0,23.0,-100.00,North,0,14.0,21.0,15,0.00,,,0.00,938.000000,,2014-07-25 21:22:00,
2014-07-25 15:33:00,73.0,23.0,-100.00,North,0,14.0,21.0,15,0.00,,,0.00,938.000000,,2014-07-25 21:33:00,
2014-07-25 16:13:00,73.0,24.0,-100.00,North,0,14.0,22.0,16,0.00,,,0.00,835.000000,,2014-07-25 22:13:00,
2014-07-25 16:23:00,73.0,24.0,-100.00,North,0,14.0,22.0,16,0.00,,,0.00,835.000000,,2014-07-25 22:23:00,
2014-07-25 16:33:00,73.0,24.0,-100.00,North,0,14.0,22.0,16,0.00,,,0.00,835.000000,,2014-07-25 22:33:00,
2014-07-25 16:43:00,73.0,24.0,-100.00,North,0,14.0,22.0,16,0.00,,,0.00,835.000000,,2014-07-25 22:43:00,
2014-07-25 17:33:00,73.0,26.0,-100.00,North,0,13.0,21.0,17,0.00,,,0.00,687.000000,,2014-07-25 23:33:00,
2014-07-25 18:22:00,72.0,23.0,-100.00,North,0,13.0,19.0,16,0.00,,,0.00,511.000000,,2014-07-26 00:22:00,
2014-07-25 18:32:00,72.0,23.0,-100.00,North,0,13.0,19.0,16,0.00,,,0.00,511.000000,,2014-07-26 00:32:00,
2014-07-25 18:42:00,72.0,23.0,-100.00,North,0,13.0,19.0,16,0.00,,,0.00,511.000000,,2014-07-26 00:42:00,
2014-07-25 19:11:00,72.0,25.0,-100.00,North,0,8.0,17.0,17,0.00,,,0.00,321.000000,,2014-07-26 01:11:00,
2014-07-25 19:22:00,72.0,25.0,-100.00,North,0,8.0,17.0,17,0.00,,,0.00,321.000000,,2014-07-26 01:22:00,
2014-07-25 19:32:00,72.0,25.0,-100.00,North,0,8.0,17.0,17,0.00,,,0.00,321.000000,,2014-07-26 01:32:00,
2014-07-25 19:42:00,72.0,25.0,-100.00,North,0,8.0,17.0,17,0.00,,,0.00,321.000000,,2014-07-26 01:42:00,
2014-07-25 20:12:00,70.0,22.0,-100.00,North,0,4.0,14.0,16,0.00,,,0.00,150.000000,,2014-07-26 02:12:00,